HAZ2828 ZBAD-ZSHC
Flight info
| Callsign | HAZ2828 |
|---|---|
| Flight time | 1h 27m |
| Altitude | 41100 |
| Route | ELKUR4K ELKUR W40 YQG/K0900S1220 W142 DALIM/K0902S1250 A593 DPX A470 OF W95 SAPIN A470 IGRAT IGRAT91 |
| Aircraft | A359/H-SDE2E3GHIJ3J4J5LM1ORWXY/LB1D1 |
Departure
| Time | 2026-04-30 06:27 |
|---|---|
| Airport | Beijing Daxing International Airport (ZBAD) |
Arrival
| Time | 2026-04-30 07:54 |
|---|---|
| Airport | Hangzhou Xiaoshan International Airport (ZSHC) |
| Time | Latitude | Longitude | Altitude | Speed | Heading |
|---|---|---|---|---|---|
| 2026-04-30 06:02 | 39.50520 | 116.40291 | 91 ft | 0 kts | 233° |
| 2026-04-30 06:16 | 39.50526 | 116.40301 | 91 ft | 4 kts | 233° |
| 2026-04-30 06:16 | 39.50543 | 116.40329 | 93 ft | 4 kts | 233° |
| 2026-04-30 06:16 | 39.50557 | 116.40353 | 91 ft | 4 kts | 243° |
| 2026-04-30 06:17 | 39.50560 | 116.40381 | 94 ft | 4 kts | 304° |
| 2026-04-30 06:17 | 39.50541 | 116.40404 | 91 ft | 4 kts | 324° |
| 2026-04-30 06:17 | 39.50533 | 116.40411 | 90 ft | 0 kts | 322° |
| 2026-04-30 06:21 | 39.50538 | 116.40406 | 94 ft | 5 kts | 322° |
| 2026-04-30 06:21 | 39.50602 | 116.40345 | 95 ft | 14 kts | 324° |
| 2026-04-30 06:21 | 39.50674 | 116.40276 | 95 ft | 6 kts | 322° |
| 2026-04-30 06:21 | 39.50740 | 116.40227 | 94 ft | 17 kts | 347° |
| 2026-04-30 06:22 | 39.50793 | 116.40219 | 94 ft | 0 kts | 353° |
| 2026-04-30 06:22 | 39.50862 | 116.40208 | 94 ft | 15 kts | 353° |
| 2026-04-30 06:22 | 39.50971 | 116.40186 | 94 ft | 16 kts | 339° |
| 2026-04-30 06:22 | 39.50989 | 116.40129 | 95 ft | 6 kts | 266° |
| 2026-04-30 06:23 | 39.50985 | 116.40049 | 93 ft | 18 kts | 263° |
| 2026-04-30 06:23 | 39.50997 | 116.39973 | 98 ft | 0 kts | 316° |
| 2026-04-30 06:23 | 39.51079 | 116.39952 | 97 ft | 15 kts | 352° |
| 2026-04-30 06:23 | 39.51184 | 116.39935 | 94 ft | 17 kts | 353° |
| 2026-04-30 06:24 | 39.51308 | 116.39917 | 98 ft | 19 kts | 353° |
| 2026-04-30 06:24 | 39.51442 | 116.39872 | 98 ft | 19 kts | 318° |
| 2026-04-30 06:24 | 39.51446 | 116.39826 | 100 ft | 10 kts | 258° |
| 2026-04-30 06:24 | 39.51440 | 116.39797 | 101 ft | 0 kts | 257° |
| 2026-04-30 06:25 | 39.51426 | 116.39707 | 104 ft | 18 kts | 252° |
| 2026-04-30 06:25 | 39.51412 | 116.39680 | 104 ft | 3 kts | 219° |
| 2026-04-30 06:25 | 39.51387 | 116.39676 | 104 ft | 0 kts | 169° |
| 2026-04-30 06:26 | 39.51363 | 116.39682 | 104 ft | 23 kts | 171° |
| 2026-04-30 06:26 | 39.50921 | 116.39748 | 105 ft | 102 kts | 173° |
| 2026-04-30 06:26 | 39.49990 | 116.39902 | 113 ft | 164 kts | 174° |
| 2026-04-30 06:27 | 39.48892 | 116.40102 | 1004 ft | 145 kts | 174° |
| 2026-04-30 06:27 | 39.47926 | 116.40266 | 1847 ft | 146 kts | 178° |
| 2026-04-30 06:27 | 39.46810 | 116.40402 | 2255 ft | 176 kts | 178° |
| 2026-04-30 06:27 | 39.45492 | 116.40573 | 2757 ft | 201 kts | 176° |
| 2026-04-30 06:28 | 39.44058 | 116.40782 | 3419 ft | 218 kts | 175° |
| 2026-04-30 06:28 | 39.42431 | 116.41023 | 3803 ft | 251 kts | 174° |
| 2026-04-30 06:28 | 39.40638 | 116.41306 | 4461 ft | 267 kts | 174° |
| 2026-04-30 06:28 | 39.38752 | 116.41612 | 5169 ft | 279 kts | 172° |
| 2026-04-30 06:29 | 39.36851 | 116.42280 | 5993 ft | 287 kts | 153° |
| 2026-04-30 06:29 | 39.35317 | 116.43907 | 6920 ft | 288 kts | 124° |
| 2026-04-30 06:29 | 39.34535 | 116.46241 | 7930 ft | 284 kts | 96° |
| 2026-04-30 06:29 | 39.34602 | 116.48754 | 8957 ft | 280 kts | 76° |
| 2026-04-30 06:30 | 39.34924 | 116.51253 | 9951 ft | 284 kts | 78° |
| 2026-04-30 06:30 | 39.35211 | 116.53831 | 10658 ft | 300 kts | 78° |
| 2026-04-30 06:30 | 39.35447 | 116.56614 | 11100 ft | 324 kts | 84° |
| 2026-04-30 06:30 | 39.35369 | 116.59598 | 11781 ft | 338 kts | 91° |
| 2026-04-30 06:31 | 39.35184 | 116.62658 | 12650 ft | 345 kts | 91° |
| 2026-04-30 06:31 | 39.34995 | 116.65773 | 13550 ft | 350 kts | 90° |
| 2026-04-30 06:31 | 39.34805 | 116.68931 | 14345 ft | 355 kts | 90° |
| 2026-04-30 06:31 | 39.34615 | 116.72138 | 15143 ft | 360 kts | 90° |
| 2026-04-30 06:32 | 39.34421 | 116.75377 | 15956 ft | 364 kts | 90° |
| 2026-04-30 06:32 | 39.34049 | 116.78628 | 16757 ft | 373 kts | 99° |
| 2026-04-30 06:32 | 39.33028 | 116.81764 | 17532 ft | 387 kts | 117° |
| 2026-04-30 06:32 | 39.31254 | 116.84441 | 18297 ft | 401 kts | 136° |
| 2026-04-30 06:33 | 39.28881 | 116.86328 | 18973 ft | 413 kts | 153° |
| 2026-04-30 06:33 | 39.26196 | 116.87728 | 19691 ft | 419 kts | 156° |
| 2026-04-30 06:33 | 39.23454 | 116.89070 | 20419 ft | 424 kts | 156° |
| 2026-04-30 06:33 | 39.20684 | 116.90435 | 21145 ft | 429 kts | 155° |
| 2026-04-30 06:34 | 39.17880 | 116.91830 | 21839 ft | 434 kts | 155° |
| 2026-04-30 06:34 | 39.15014 | 116.93263 | 22563 ft | 439 kts | 155° |
| 2026-04-30 06:34 | 39.12192 | 116.94680 | 23209 ft | 444 kts | 155° |
| 2026-04-30 06:34 | 39.09299 | 116.96137 | 23841 ft | 449 kts | 155° |
| 2026-04-30 06:35 | 39.06376 | 116.97603 | 24456 ft | 453 kts | 155° |
| 2026-04-30 06:35 | 39.03428 | 116.99082 | 25076 ft | 456 kts | 155° |
| 2026-04-30 06:35 | 39.00466 | 117.00568 | 25679 ft | 460 kts | 155° |
| 2026-04-30 06:35 | 38.97466 | 117.02073 | 26280 ft | 464 kts | 155° |
| 2026-04-30 06:36 | 38.94444 | 117.03587 | 26875 ft | 467 kts | 155° |
| 2026-04-30 06:36 | 38.91399 | 117.05106 | 27447 ft | 472 kts | 155° |
| 2026-04-30 06:36 | 38.88213 | 117.06257 | 27963 ft | 482 kts | 169° |
| 2026-04-30 06:36 | 38.84842 | 117.06322 | 28508 ft | 488 kts | 187° |
| 2026-04-30 06:37 | 38.81552 | 117.05220 | 29045 ft | 491 kts | 204° |
| 2026-04-30 06:37 | 38.78602 | 117.03041 | 29571 ft | 490 kts | 220° |
| 2026-04-30 06:37 | 38.76223 | 116.99966 | 30072 ft | 486 kts | 237° |
| 2026-04-30 06:38 | 38.74602 | 116.96288 | 30504 ft | 478 kts | 253° |
| 2026-04-30 06:38 | 38.73558 | 116.92257 | 30998 ft | 478 kts | 257° |
| 2026-04-30 06:38 | 38.72412 | 116.88240 | 31455 ft | 483 kts | 253° |
| 2026-04-30 06:38 | 38.71077 | 116.84305 | 31922 ft | 485 kts | 250° |
| 2026-04-30 06:39 | 38.69611 | 116.80397 | 32457 ft | 487 kts | 248° |
| 2026-04-30 06:39 | 38.67986 | 116.76562 | 32849 ft | 493 kts | 242° |
| 2026-04-30 06:39 | 38.65904 | 116.73047 | 33228 ft | 501 kts | 230° |
| 2026-04-30 06:39 | 38.63300 | 116.70033 | 33603 ft | 509 kts | 219° |
| 2026-04-30 06:40 | 38.60265 | 116.67664 | 33961 ft | 515 kts | 207° |
| 2026-04-30 06:40 | 38.56901 | 116.66041 | 34245 ft | 520 kts | 196° |
| 2026-04-30 06:40 | 38.53340 | 116.65166 | 34541 ft | 522 kts | 188° |
| 2026-04-30 06:40 | 38.49734 | 116.64632 | 34952 ft | 522 kts | 186° |
| 2026-04-30 06:41 | 38.46118 | 116.64236 | 35356 ft | 521 kts | 185° |
| 2026-04-30 06:41 | 38.42555 | 116.63892 | 35724 ft | 520 kts | 185° |
| 2026-04-30 06:41 | 38.38903 | 116.63539 | 36078 ft | 520 kts | 186° |
| 2026-04-30 06:41 | 38.35290 | 116.63173 | 36408 ft | 521 kts | 186° |
| 2026-04-30 06:42 | 38.31663 | 116.62926 | 36727 ft | 522 kts | 181° |
| 2026-04-30 06:42 | 38.28044 | 116.63258 | 37067 ft | 524 kts | 172° |
| 2026-04-30 06:42 | 38.24469 | 116.64230 | 37382 ft | 524 kts | 166° |
| 2026-04-30 06:42 | 38.20946 | 116.65429 | 37687 ft | 525 kts | 165° |
| 2026-04-30 06:43 | 38.17438 | 116.66720 | 37991 ft | 525 kts | 164° |
| 2026-04-30 06:43 | 38.13983 | 116.68030 | 38269 ft | 526 kts | 164° |
| 2026-04-30 06:43 | 38.10427 | 116.69386 | 38563 ft | 526 kts | 165° |
| 2026-04-30 06:43 | 38.06972 | 116.70717 | 38803 ft | 526 kts | 164° |
| 2026-04-30 06:44 | 38.03464 | 116.72074 | 39060 ft | 525 kts | 164° |
| 2026-04-30 06:44 | 37.99976 | 116.73418 | 39322 ft | 524 kts | 165° |
| 2026-04-30 06:44 | 37.96488 | 116.74756 | 39578 ft | 523 kts | 165° |
| 2026-04-30 06:44 | 37.92998 | 116.76088 | 39825 ft | 523 kts | 165° |
| 2026-04-30 06:45 | 37.89522 | 116.77410 | 40052 ft | 522 kts | 165° |
| 2026-04-30 06:45 | 37.86045 | 116.78729 | 40283 ft | 521 kts | 165° |
| 2026-04-30 06:45 | 37.82573 | 116.80045 | 40506 ft | 520 kts | 165° |
| 2026-04-30 06:45 | 37.79111 | 116.81355 | 40723 ft | 520 kts | 165° |
| 2026-04-30 06:46 | 37.75647 | 116.82665 | 40946 ft | 519 kts | 165° |
| 2026-04-30 06:46 | 37.72179 | 116.83975 | 41049 ft | 521 kts | 165° |
| 2026-04-30 06:46 | 37.68696 | 116.85289 | 41064 ft | 523 kts | 165° |
| 2026-04-30 06:47 | 37.62760 | 116.87527 | 41064 ft | 523 kts | 165° |
| 2026-04-30 06:47 | 37.57252 | 116.89601 | 41057 ft | 521 kts | 165° |
| 2026-04-30 06:48 | 37.50293 | 116.92216 | 41063 ft | 521 kts | 165° |
| 2026-04-30 06:48 | 37.43317 | 116.94832 | 41068 ft | 527 kts | 166° |
| 2026-04-30 06:49 | 37.36241 | 116.97479 | 41066 ft | 533 kts | 166° |
| 2026-04-30 06:49 | 37.29127 | 117.00138 | 41061 ft | 534 kts | 166° |
| 2026-04-30 06:50 | 37.22100 | 117.03205 | 41054 ft | 535 kts | 161° |
| 2026-04-30 06:50 | 37.15160 | 117.06614 | 41054 ft | 536 kts | 160° |
| 2026-04-30 06:51 | 37.08196 | 117.09969 | 41067 ft | 536 kts | 161° |
| 2026-04-30 06:51 | 37.01264 | 117.13224 | 41071 ft | 536 kts | 161° |
| 2026-04-30 06:52 | 36.94265 | 117.16475 | 41067 ft | 536 kts | 161° |
| 2026-04-30 06:52 | 36.87266 | 117.19705 | 41087 ft | 536 kts | 163° |
| 2026-04-30 06:53 | 36.80037 | 117.21475 | 41104 ft | 527 kts | 181° |
| 2026-04-30 06:53 | 36.73692 | 117.21648 | 41094 ft | 526 kts | 183° |
| 2026-04-30 06:54 | 36.68113 | 117.21590 | 41085 ft | 526 kts | 184° |
| 2026-04-30 06:54 | 36.60809 | 117.21472 | 41078 ft | 527 kts | 184° |
| 2026-04-30 06:55 | 36.53459 | 117.21388 | 41065 ft | 527 kts | 184° |
| 2026-04-30 06:55 | 36.46127 | 117.21333 | 41071 ft | 528 kts | 184° |
| 2026-04-30 06:56 | 36.38810 | 117.22441 | 41071 ft | 535 kts | 169° |
| 2026-04-30 06:56 | 36.31616 | 117.24922 | 41070 ft | 537 kts | 165° |
| 2026-04-30 06:57 | 36.24485 | 117.27656 | 41069 ft | 537 kts | 165° |
| 2026-04-30 06:57 | 36.17334 | 117.30375 | 41069 ft | 537 kts | 165° |
| 2026-04-30 06:58 | 36.10175 | 117.33043 | 41070 ft | 537 kts | 166° |
| 2026-04-30 06:58 | 36.03012 | 117.35688 | 41072 ft | 537 kts | 166° |
| 2026-04-30 06:59 | 35.95859 | 117.38340 | 41077 ft | 537 kts | 166° |
| 2026-04-30 06:59 | 35.88693 | 117.41025 | 41080 ft | 538 kts | 166° |
| 2026-04-30 07:00 | 35.81541 | 117.43702 | 41071 ft | 538 kts | 166° |
| 2026-04-30 07:00 | 35.74382 | 117.46375 | 41085 ft | 539 kts | 166° |
| 2026-04-30 07:01 | 35.67198 | 117.49049 | 41095 ft | 538 kts | 166° |
| 2026-04-30 07:01 | 35.62331 | 117.50859 | 41095 ft | 537 kts | 166° |
| 2026-04-30 07:02 | 35.56705 | 117.52947 | 41095 ft | 537 kts | 166° |
| 2026-04-30 07:02 | 35.49550 | 117.55599 | 41099 ft | 537 kts | 166° |
| 2026-04-30 07:03 | 35.42390 | 117.58248 | 41099 ft | 537 kts | 166° |
| 2026-04-30 07:03 | 35.35241 | 117.60887 | 41100 ft | 537 kts | 166° |
| 2026-04-30 07:04 | 35.28088 | 117.63524 | 41105 ft | 537 kts | 166° |
| 2026-04-30 07:04 | 35.22136 | 117.65714 | 41106 ft | 537 kts | 166° |
| 2026-04-30 07:05 | 35.10174 | 117.70105 | 41110 ft | 537 kts | 166° |
| 2026-04-30 07:05 | 35.04227 | 117.72286 | 41111 ft | 537 kts | 166° |
| 2026-04-30 07:06 | 34.97075 | 117.74906 | 41115 ft | 536 kts | 166° |
| 2026-04-30 07:06 | 34.89937 | 117.77515 | 41115 ft | 536 kts | 166° |
| 2026-04-30 07:07 | 34.82786 | 117.80127 | 41091 ft | 536 kts | 167° |
| 2026-04-30 07:07 | 34.75649 | 117.82739 | 41118 ft | 535 kts | 167° |
| 2026-04-30 07:08 | 34.68515 | 117.85294 | 41117 ft | 534 kts | 167° |
| 2026-04-30 07:08 | 34.61389 | 117.87840 | 41118 ft | 534 kts | 167° |
| 2026-04-30 07:09 | 34.54253 | 117.90395 | 41116 ft | 534 kts | 168° |
| 2026-04-30 07:09 | 34.47133 | 117.92944 | 41125 ft | 534 kts | 168° |
| 2026-04-30 07:10 | 34.40000 | 117.95493 | 41117 ft | 534 kts | 168° |
| 2026-04-30 07:10 | 34.32876 | 117.98035 | 41096 ft | 534 kts | 168° |
| 2026-04-30 07:11 | 34.25754 | 118.00576 | 41122 ft | 534 kts | 168° |
| 2026-04-30 07:11 | 34.18639 | 118.03162 | 41120 ft | 534 kts | 168° |
| 2026-04-30 07:12 | 34.11573 | 118.05744 | 41125 ft | 534 kts | 168° |
| 2026-04-30 07:12 | 34.04451 | 118.08339 | 41117 ft | 534 kts | 168° |
| 2026-04-30 07:13 | 33.97340 | 118.10928 | 41128 ft | 534 kts | 168° |
| 2026-04-30 07:13 | 33.90222 | 118.13520 | 41131 ft | 534 kts | 168° |
| 2026-04-30 07:14 | 33.83111 | 118.16102 | 41132 ft | 534 kts | 168° |
| 2026-04-30 07:14 | 33.75989 | 118.18697 | 41137 ft | 535 kts | 169° |
| 2026-04-30 07:15 | 33.68872 | 118.21287 | 41145 ft | 535 kts | 169° |
| 2026-04-30 07:15 | 33.61745 | 118.23875 | 41148 ft | 535 kts | 169° |
| 2026-04-30 07:16 | 33.54649 | 118.26452 | 40795 ft | 528 kts | 169° |
| 2026-04-30 07:16 | 33.51137 | 118.27728 | 40339 ft | 529 kts | 169° |
| 2026-04-30 07:16 | 33.47603 | 118.29004 | 40175 ft | 533 kts | 169° |
| 2026-04-30 07:17 | 33.40452 | 118.31581 | 40159 ft | 539 kts | 169° |
| 2026-04-30 07:18 | 33.29679 | 118.35471 | 40141 ft | 539 kts | 169° |
| 2026-04-30 07:18 | 33.22476 | 118.38067 | 40167 ft | 540 kts | 170° |
| 2026-04-30 07:19 | 33.15295 | 118.40662 | 40164 ft | 539 kts | 170° |
| 2026-04-30 07:19 | 33.08109 | 118.43245 | 40171 ft | 539 kts | 170° |
| 2026-04-30 07:20 | 33.00928 | 118.45821 | 40167 ft | 539 kts | 170° |
| 2026-04-30 07:20 | 32.93741 | 118.48397 | 40173 ft | 539 kts | 170° |
| 2026-04-30 07:21 | 32.86556 | 118.50969 | 40172 ft | 539 kts | 170° |
| 2026-04-30 07:21 | 32.79417 | 118.53521 | 40150 ft | 539 kts | 170° |
| 2026-04-30 07:22 | 32.68660 | 118.57359 | 40181 ft | 538 kts | 170° |
| 2026-04-30 07:22 | 32.61478 | 118.59880 | 40181 ft | 537 kts | 171° |
| 2026-04-30 07:23 | 32.54288 | 118.62300 | 40182 ft | 537 kts | 171° |
| 2026-04-30 07:23 | 32.47110 | 118.64710 | 40189 ft | 537 kts | 171° |
| 2026-04-30 07:24 | 32.39927 | 118.67134 | 40188 ft | 536 kts | 172° |
| 2026-04-30 07:24 | 32.32775 | 118.69554 | 40194 ft | 534 kts | 172° |
| 2026-04-30 07:25 | 32.25630 | 118.71975 | 40175 ft | 534 kts | 172° |
| 2026-04-30 07:25 | 32.18491 | 118.74367 | 40196 ft | 534 kts | 172° |
| 2026-04-30 07:26 | 32.11342 | 118.76751 | 40204 ft | 534 kts | 172° |
| 2026-04-30 07:26 | 32.04208 | 118.79131 | 40207 ft | 534 kts | 172° |
| 2026-04-30 07:27 | 31.97067 | 118.81515 | 40199 ft | 533 kts | 172° |
| 2026-04-30 07:27 | 31.89921 | 118.83819 | 40204 ft | 532 kts | 173° |
| 2026-04-30 07:28 | 31.82770 | 118.86073 | 40203 ft | 532 kts | 173° |
| 2026-04-30 07:28 | 31.79233 | 118.87342 | 39942 ft | 531 kts | 168° |
| 2026-04-30 07:28 | 31.75853 | 118.89156 | 39224 ft | 539 kts | 158° |
| 2026-04-30 07:29 | 31.72727 | 118.91621 | 37856 ft | 547 kts | 148° |
| 2026-04-30 07:29 | 31.69780 | 118.94515 | 36385 ft | 554 kts | 146° |
| 2026-04-30 07:29 | 31.66829 | 118.97288 | 35599 ft | 534 kts | 153° |
| 2026-04-30 07:29 | 31.63873 | 118.99847 | 34838 ft | 523 kts | 152° |
| 2026-04-30 07:30 | 31.58103 | 119.05069 | 33103 ft | 527 kts | 151° |
| 2026-04-30 07:30 | 31.55185 | 119.07720 | 32232 ft | 534 kts | 151° |
| 2026-04-30 07:30 | 31.52229 | 119.10381 | 31303 ft | 538 kts | 151° |
| 2026-04-30 07:31 | 31.49233 | 119.13044 | 30461 ft | 540 kts | 151° |
| 2026-04-30 07:31 | 31.46237 | 119.15688 | 29634 ft | 540 kts | 151° |
| 2026-04-30 07:31 | 31.43248 | 119.18320 | 28910 ft | 536 kts | 151° |
| 2026-04-30 07:31 | 31.40277 | 119.20920 | 28204 ft | 530 kts | 152° |
| 2026-04-30 07:32 | 31.37327 | 119.23493 | 27542 ft | 526 kts | 152° |
| 2026-04-30 07:32 | 31.34407 | 119.26035 | 26873 ft | 522 kts | 152° |
| 2026-04-30 07:32 | 31.31507 | 119.28557 | 26208 ft | 518 kts | 152° |
| 2026-04-30 07:32 | 31.28624 | 119.31062 | 25537 ft | 515 kts | 152° |
| 2026-04-30 07:33 | 31.25796 | 119.33517 | 24883 ft | 512 kts | 151° |
| 2026-04-30 07:33 | 31.22949 | 119.35988 | 24227 ft | 509 kts | 151° |
| 2026-04-30 07:33 | 31.20075 | 119.38480 | 23527 ft | 506 kts | 150° |
| 2026-04-30 07:33 | 31.17297 | 119.40900 | 22812 ft | 503 kts | 150° |
| 2026-04-30 07:34 | 31.14510 | 119.43337 | 22148 ft | 499 kts | 149° |
| 2026-04-30 07:34 | 31.11746 | 119.45754 | 21442 ft | 494 kts | 149° |
| 2026-04-30 07:34 | 31.09006 | 119.48148 | 20820 ft | 489 kts | 149° |
| 2026-04-30 07:34 | 31.06293 | 119.50515 | 20174 ft | 485 kts | 149° |
| 2026-04-30 07:35 | 31.03604 | 119.52859 | 19520 ft | 480 kts | 148° |
| 2026-04-30 07:35 | 31.00944 | 119.55177 | 18863 ft | 476 kts | 148° |
| 2026-04-30 07:35 | 30.98307 | 119.57473 | 18160 ft | 471 kts | 148° |
| 2026-04-30 07:35 | 30.95695 | 119.59746 | 17454 ft | 466 kts | 148° |
| 2026-04-30 07:36 | 30.93116 | 119.61989 | 16782 ft | 459 kts | 147° |
| 2026-04-30 07:36 | 30.90575 | 119.64197 | 16130 ft | 453 kts | 147° |
| 2026-04-30 07:36 | 30.88066 | 119.66375 | 15465 ft | 447 kts | 147° |
| 2026-04-30 07:36 | 30.85587 | 119.68526 | 14820 ft | 441 kts | 146° |
| 2026-04-30 07:37 | 30.83139 | 119.70648 | 14170 ft | 436 kts | 146° |
| 2026-04-30 07:37 | 30.80723 | 119.72742 | 13456 ft | 431 kts | 146° |
| 2026-04-30 07:37 | 30.78337 | 119.74808 | 12805 ft | 423 kts | 146° |
| 2026-04-30 07:37 | 30.75993 | 119.76837 | 12185 ft | 417 kts | 145° |
| 2026-04-30 07:38 | 30.73690 | 119.78829 | 11777 ft | 406 kts | 145° |
| 2026-04-30 07:38 | 30.71479 | 119.80744 | 11652 ft | 387 kts | 145° |
| 2026-04-30 07:38 | 30.69388 | 119.82607 | 11518 ft | 370 kts | 143° |
| 2026-04-30 07:38 | 30.67411 | 119.84425 | 11387 ft | 354 kts | 144° |
| 2026-04-30 07:39 | 30.65523 | 119.86157 | 11250 ft | 339 kts | 144° |
| 2026-04-30 07:39 | 30.63643 | 119.87716 | 11097 ft | 325 kts | 152° |
| 2026-04-30 07:39 | 30.61719 | 119.88993 | 10924 ft | 315 kts | 154° |
| 2026-04-30 07:39 | 30.59794 | 119.90213 | 10609 ft | 314 kts | 154° |
| 2026-04-30 07:40 | 30.57886 | 119.91418 | 10297 ft | 312 kts | 154° |
| 2026-04-30 07:40 | 30.55987 | 119.92620 | 9989 ft | 310 kts | 154° |
| 2026-04-30 07:40 | 30.54076 | 119.93829 | 9672 ft | 315 kts | 153° |
| 2026-04-30 07:40 | 30.52146 | 119.95051 | 9346 ft | 314 kts | 153° |
| 2026-04-30 07:41 | 30.50236 | 119.96263 | 9031 ft | 312 kts | 153° |
| 2026-04-30 07:41 | 30.48336 | 119.97467 | 8724 ft | 310 kts | 153° |
| 2026-04-30 07:41 | 30.46449 | 119.98662 | 8419 ft | 308 kts | 153° |
| 2026-04-30 07:41 | 30.44585 | 119.99843 | 8092 ft | 305 kts | 153° |
| 2026-04-30 07:42 | 30.42730 | 120.01016 | 7826 ft | 302 kts | 153° |
| 2026-04-30 07:42 | 30.40883 | 120.02185 | 7752 ft | 302 kts | 153° |
| 2026-04-30 07:42 | 30.39043 | 120.03349 | 7684 ft | 302 kts | 152° |
| 2026-04-30 07:42 | 30.37202 | 120.04513 | 7590 ft | 301 kts | 152° |
| 2026-04-30 07:43 | 30.35372 | 120.05672 | 7536 ft | 300 kts | 152° |
| 2026-04-30 07:43 | 30.33539 | 120.06831 | 7457 ft | 299 kts | 152° |
| 2026-04-30 07:43 | 30.31711 | 120.07984 | 7380 ft | 299 kts | 152° |
| 2026-04-30 07:43 | 30.29889 | 120.09135 | 7293 ft | 298 kts | 152° |
| 2026-04-30 07:44 | 30.28068 | 120.10286 | 7213 ft | 298 kts | 152° |
| 2026-04-30 07:44 | 30.26251 | 120.11434 | 7142 ft | 297 kts | 152° |
| 2026-04-30 07:44 | 30.24437 | 120.12572 | 7063 ft | 297 kts | 153° |
| 2026-04-30 07:44 | 30.22494 | 120.13336 | 6992 ft | 294 kts | 175° |
| 2026-04-30 07:45 | 30.20509 | 120.13070 | 6918 ft | 286 kts | 205° |
| 2026-04-30 07:45 | 30.18890 | 120.11830 | 6759 ft | 277 kts | 231° |
| 2026-04-30 07:45 | 30.17927 | 120.09958 | 6509 ft | 270 kts | 253° |
| 2026-04-30 07:45 | 30.17099 | 120.08031 | 6277 ft | 271 kts | 236° |
| 2026-04-30 07:46 | 30.15611 | 120.06780 | 6112 ft | 267 kts | 201° |
| 2026-04-30 07:46 | 30.13794 | 120.06710 | 5932 ft | 262 kts | 165° |
| 2026-04-30 07:46 | 30.12176 | 120.07583 | 5764 ft | 253 kts | 152° |
| 2026-04-30 07:46 | 30.10675 | 120.08589 | 5530 ft | 248 kts | 147° |
| 2026-04-30 07:47 | 30.09483 | 120.09996 | 5237 ft | 246 kts | 118° |
| 2026-04-30 07:47 | 30.09117 | 120.11863 | 4989 ft | 236 kts | 83° |
| 2026-04-30 07:47 | 30.09572 | 120.13615 | 4577 ft | 226 kts | 61° |
| 2026-04-30 07:47 | 30.10303 | 120.15220 | 4011 ft | 224 kts | 59° |
| 2026-04-30 07:48 | 30.11042 | 120.16798 | 3454 ft | 223 kts | 60° |
| 2026-04-30 07:48 | 30.11763 | 120.18366 | 3101 ft | 220 kts | 60° |
| 2026-04-30 07:48 | 30.12448 | 120.19875 | 3023 ft | 199 kts | 60° |
| 2026-04-30 07:48 | 30.13065 | 120.21249 | 3022 ft | 190 kts | 60° |
| 2026-04-30 07:49 | 30.13672 | 120.22600 | 3004 ft | 189 kts | 60° |
| 2026-04-30 07:49 | 30.14276 | 120.23940 | 3019 ft | 184 kts | 60° |
| 2026-04-30 07:49 | 30.14821 | 120.25160 | 2997 ft | 161 kts | 60° |
| 2026-04-30 07:49 | 30.15307 | 120.26259 | 2998 ft | 145 kts | 59° |
| 2026-04-30 07:50 | 30.15768 | 120.27281 | 2999 ft | 144 kts | 59° |
| 2026-04-30 07:50 | 30.16224 | 120.28300 | 2946 ft | 149 kts | 59° |
| 2026-04-30 07:50 | 30.16736 | 120.29410 | 2547 ft | 159 kts | 57° |
| 2026-04-30 07:50 | 30.17242 | 120.30535 | 2152 ft | 164 kts | 60° |
| 2026-04-30 07:51 | 30.17746 | 120.31683 | 1898 ft | 153 kts | 59° |
| 2026-04-30 07:51 | 30.18204 | 120.32713 | 1781 ft | 137 kts | 58° |
| 2026-04-30 07:51 | 30.18634 | 120.33677 | 1649 ft | 134 kts | 59° |
| 2026-04-30 07:51 | 30.19065 | 120.34647 | 1454 ft | 136 kts | 59° |
| 2026-04-30 07:52 | 30.19492 | 120.35611 | 1255 ft | 134 kts | 59° |
| 2026-04-30 07:52 | 30.19920 | 120.36577 | 1085 ft | 135 kts | 59° |
| 2026-04-30 07:52 | 30.20207 | 120.37227 | 959 ft | 134 kts | 59° |
| 2026-04-30 07:52 | 30.20771 | 120.38483 | 734 ft | 133 kts | 59° |
| 2026-04-30 07:53 | 30.21192 | 120.39429 | 566 ft | 133 kts | 60° |
| 2026-04-30 07:53 | 30.21474 | 120.40054 | 411 ft | 131 kts | 60° |
| 2026-04-30 07:53 | 30.21875 | 120.41000 | 240 ft | 131 kts | 60° |
| 2026-04-30 07:53 | 30.22292 | 120.41951 | 61 ft | 131 kts | 59° |
| 2026-04-30 07:54 | 30.22688 | 120.42830 | 36 ft | 117 kts | 58° |
| 2026-04-30 07:54 | 30.22995 | 120.43537 | 41 ft | 78 kts | 63° |
| 2026-04-30 07:54 | 30.23177 | 120.43941 | 37 ft | 36 kts | 57° |
| 2026-04-30 07:54 | 30.23286 | 120.44064 | 37 ft | 0 kts | 36° |
| 2026-04-30 07:55 | 30.23313 | 120.44087 | 39 ft | 13 kts | 36° |
| 2026-04-30 07:55 | 30.23404 | 120.44125 | 38 ft | 13 kts | 339° |
| 2026-04-30 07:55 | 30.23486 | 120.44071 | 38 ft | 14 kts | 329° |
| 2026-04-30 07:55 | 30.23552 | 120.43994 | 38 ft | 12 kts | 268° |
| 2026-04-30 07:56 | 30.23577 | 120.43906 | 38 ft | 13 kts | 323° |
| 2026-04-30 07:56 | 30.23661 | 120.43856 | 38 ft | 15 kts | 333° |
| 2026-04-30 07:56 | 30.23767 | 120.43794 | 38 ft | 18 kts | 333° |
| 2026-04-30 07:56 | 30.23878 | 120.43730 | 38 ft | 16 kts | 333° |
| 2026-04-30 07:57 | 30.23988 | 120.43667 | 38 ft | 19 kts | 333° |
| 2026-04-30 07:57 | 30.24111 | 120.43595 | 38 ft | 21 kts | 332° |
| 2026-04-30 07:57 | 30.24247 | 120.43513 | 38 ft | 23 kts | 333° |
| 2026-04-30 07:57 | 30.24394 | 120.43425 | 37 ft | 25 kts | 332° |
| 2026-04-30 07:58 | 30.24506 | 120.43357 | 38 ft | 16 kts | 330° |
| 2026-04-30 07:58 | 30.24506 | 120.43250 | 38 ft | 16 kts | 247° |
| 2026-04-30 07:58 | 30.24452 | 120.43124 | 38 ft | 19 kts | 238° |
| 2026-04-30 07:58 | 30.24391 | 120.42980 | 38 ft | 21 kts | 244° |
| 2026-04-30 07:59 | 30.24323 | 120.42817 | 38 ft | 24 kts | 244° |
| 2026-04-30 07:59 | 30.24254 | 120.42683 | 38 ft | 10 kts | 239° |
| 2026-04-30 07:59 | 30.24214 | 120.42596 | 38 ft | 17 kts | 242° |
| 2026-04-30 08:00 | 30.24147 | 120.42615 | 38 ft | 0 kts | 145° |
| 2026-04-30 08:00 | 30.24142 | 120.42619 | 38 ft | 6 kts | 144° |
| 2026-04-30 08:01 | 30.24119 | 120.42638 | 38 ft | 1 kts | 144° |